Time;durP1;ratioP1;P1;durP2;ratioP2;P2;SDS_P1;SDS_P2;PMS_P1;PMS_P2;Temp;Humidity;BMP_temperature;BMP_pressure;BME280_temperature;BME280_humidity;BME280_pressure;Samples;Min_cycle;Max_cycle;Signal;HPM_P1;HPM_P2
2022/09/26 00:01:21;;;;;;;1.77;1.67;;;23.50;63.30;;;;;;5075729;28;20084;-53
2022/09/26 00:04:14;;;;;;;1.80;1.70;;;23.50;63.10;;;;;;5078594;28;20033;-48
2022/09/26 00:06:41;;;;;;;2.83;2.33;;;23.50;63.20;;;;;;5084250;28;20024;-48
2022/09/26 00:09:07;;;;;;;3.75;1.95;;;23.50;63.10;;;;;;5075474;28;20029;-47
2022/09/26 00:11:34;;;;;;;8.27;2.08;;;23.50;63.10;;;;;;5083276;28;20505;-49
2022/09/26 00:14:05;;;;;;;5.10;2.00;;;23.50;63.00;;;;;;5086407;28;20032;-47
2022/09/26 00:16:31;;;;;;;3.97;1.80;;;23.50;61.40;;;;;;5102049;28;20032;-55
2022/09/26 00:18:57;;;;;;;2.10;1.90;;;23.40;60.60;;;;;;5078145;28;20130;-53
2022/09/26 00:21:24;;;;;;;2.60;2.20;;;23.40;60.30;;;;;;5072532;28;20025;-55
2022/09/26 00:23:50;;;;;;;1.80;1.70;;;23.30;59.90;;;;;;5078034;28;20562;-53
2022/09/26 00:26:17;;;;;;;1.90;1.70;;;23.20;59.70;;;;;;5076634;28;20036;-53
2022/09/26 00:28:43;;;;;;;;;;;23.20;59.40;;;;;;5079308;28;20038;-57
2022/09/26 00:31:11;;;;;;;1.80;1.70;;;23.10;59.40;;;;;;5082499;28;19947;-54
2022/09/26 00:33:38;;;;;;;1.65;1.55;;;23.10;59.30;;;;;;5076428;28;20052;-54
2022/09/26 00:36:04;;;;;;;2.95;1.80;;;23.00;59.10;;;;;;5075285;28;20051;-54
2022/09/26 00:38:30;;;;;;;2.17;1.40;;;22.90;59.10;;;;;;5079996;28;20032;-55
2022/09/26 00:40:56;;;;;;;1.80;1.70;;;22.80;59.00;;;;;;5074886;28;20021;-50
2022/09/26 00:43:45;;;;;;;1.70;1.50;;;22.80;58.90;;;;;;5077861;28;20495;-52
2022/09/26 00:46:32;;;;;;;1.73;1.48;;;22.80;58.90;;;;;;5068077;28;20119;-52
2022/09/26 00:49:19;;;;;;;1.85;1.70;;;22.70;58.80;;;;;;5069811;28;20025;-54
2022/09/26 00:51:49;;;;;;;1.50;1.40;;;22.70;58.70;;;;;;5077466;28;20032;-53
2022/09/26 00:54:16;;;;;;;1.70;1.60;;;22.50;58.60;;;;;;5080069;28;20091;-55
2022/09/26 00:56:43;;;;;;;1.50;1.40;;;22.50;58.80;;;;;;5071735;28;20705;-55
2022/09/26 00:59:36;;;;;;;1.40;1.30;;;22.40;58.90;;;;;;5054616;28;20052;-53
2022/09/26 01:02:03;;;;;;;1.73;1.55;;;22.30;58.80;;;;;;5063633;28;20070;-52
2022/09/26 01:04:29;;;;;;;1.55;1.45;;;22.30;58.80;;;;;;5076658;28;20043;-57
2022/09/26 01:07:00;;;;;;;6.13;1.77;;;22.20;58.70;;;;;;5070606;28;20037;-54
2022/09/26 01:09:26;;;;;;;3.35;1.80;;;22.20;58.90;;;;;;5052723;28;20096;-56
2022/09/26 01:11:52;;;;;;;2.22;1.52;;;22.20;58.80;;;;;;5036146;28;20021;-56
2022/09/26 01:14:18;;;;;;;1.63;1.47;;;22.20;58.80;;;;;;5056018;28;20067;-56
2022/09/26 01:16:46;;;;;;;1.80;1.70;;;22.20;58.60;;;;;;5076057;28;20040;-59
2022/09/26 01:19:48;;;;;;;2.03;1.30;;;22.10;58.40;;;;;;5076990;28;20039;-53
2022/09/26 01:22:17;;;;;;;1.52;1.40;;;22.10;58.40;;;;;;5069604;28;20059;-57
2022/09/26 01:24:47;;;;;;;1.60;1.50;;;22.00;58.40;;;;;;5068685;28;20025;-57
2022/09/26 01:27:35;;;;;;;1.73;1.55;;;21.90;58.40;;;;;;5068797;28;20089;-56
2022/09/26 01:30:14;;;;;;;1.73;1.63;;;21.80;58.40;;;;;;5067845;28;20064;-52
2022/09/26 01:32:56;;;;;;;1.50;1.40;;;21.80;58.40;;;;;;5050613;28;20033;-52
2022/09/26 01:35:31;;;;;;;1.60;1.50;;;21.70;58.40;;;;;;5069743;28;20068;-48
2022/09/26 01:38:19;;;;;;;1.77;1.67;;;21.70;58.30;;;;;;5086670;28;20037;-55
2022/09/26 01:41:15;;;;;;;1.60;1.50;;;21.60;58.30;;;;;;5072408;28;20044;-53
2022/09/26 01:43:55;;;;;;;1.67;1.58;;;21.50;58.40;;;;;;5072292;28;20032;-56
2022/09/26 01:46:49;;;;;;;1.42;1.33;;;21.50;58.40;;;;;;5074305;28;20830;-55
2022/09/26 01:49:44;;;;;;;1.50;1.40;;;21.50;58.50;;;;;;5070196;28;20025;-54
2022/09/26 01:52:27;;;;;;;4.22;2.03;;;21.50;58.70;;;;;;5078075;28;20031;-56
2022/09/26 01:55:09;;;;;;;3.97;2.08;;;21.50;59.40;;;;;;5076947;28;20107;-53
2022/09/26 01:57:43;;;;;;;3.60;2.28;;;21.50;60.10;;;;;;5089324;28;20048;-42
2022/09/26 02:00:13;;;;;;;3.97;2.10;;;21.40;60.40;;;;;;5073826;28;20107;-57
2022/09/26 02:02:44;;;;;;;3.40;1.83;;;21.40;61.10;;;;;;5074236;28;20017;-54
2022/09/26 02:05:28;;;;;;;3.90;1.98;;;21.40;60.80;;;;;;5068823;28;20067;-56
2022/09/26 02:08:16;;;;;;;1.95;1.67;;;21.40;60.40;;;;;;5078860;28;20701;-58
2022/09/26 02:11:05;;;;;;;2.22;1.55;;;21.30;59.90;;;;;;5069954;28;20039;-61
2022/09/26 02:13:38;;;;;;;2.00;1.80;;;21.30;59.70;;;;;;5074062;28;20057;-49
2022/09/26 02:16:10;;;;;;;1.90;1.50;;;21.20;59.50;;;;;;5076338;28;20033;-57
2022/09/26 02:18:42;;;;;;;1.75;1.60;;;21.20;59.40;;;;;;5074303;28;20060;-43
2022/09/26 02:21:20;;;;;;;2.13;1.50;;;21.20;59.30;;;;;;5075220;28;20533;-51
2022/09/26 02:23:47;;;;;;;1.60;1.40;;;21.10;59.80;;;;;;5077912;28;20028;-58
2022/09/26 02:26:13;;;;;;;3.05;1.55;;;21.10;59.10;;;;;;5091103;28;20508;-52
2022/09/26 02:28:39;;;;;;;1.67;1.40;;;21.00;59.10;;;;;;5073284;28;20044;-57
2022/09/26 02:31:07;;;;;;;1.83;1.73;;;21.00;59.10;;;;;;5069572;28;20028;-57
2022/09/26 02:33:34;;;;;;;1.60;1.50;;;20.90;58.90;;;;;;5075904;28;20043;-40
2022/09/26 02:36:06;;;;;;;1.70;1.60;;;20.90;58.90;;;;;;5091022;28;20492;-47
2022/09/26 02:38:33;;;;;;;1.60;1.50;;;20.90;59.10;;;;;;5072993;28;20048;-51
2022/09/26 02:41:08;;;;;;;;;;;20.80;58.90;;;;;;5066652;28;20032;-47
2022/09/26 02:44:10;;;;;;;2.75;1.65;;;20.80;59.00;;;;;;5066548;28;19913;-45
2022/09/26 02:47:08;;;;;;;3.90;1.90;;;20.70;59.20;;;;;;5031029;28;20047;-48
2022/09/26 02:49:49;;;;;;;1.67;1.58;;;20.70;59.80;;;;;;5069295;28;20029;-46
2022/09/26 02:52:27;;;;;;;1.58;1.48;;;20.70;60.30;;;;;;5066524;28;20025;-45
2022/09/26 02:55:21;;;;;;;1.63;1.52;;;20.70;60.70;;;;;;5082857;28;20046;-46
2022/09/26 02:58:13;;;;;;;1.90;1.30;;;20.80;61.00;;;;;;5077742;28;20059;-45
2022/09/26 03:00:54;;;;;;;1.60;1.50;;;20.70;61.20;;;;;;5080587;28;20024;-45
2022/09/26 03:03:52;;;;;;;1.80;1.42;;;20.70;60.80;;;;;;5080382;28;20023;-45
2022/09/26 03:06:19;;;;;;;1.52;1.42;;;20.60;60.20;;;;;;5065889;28;20032;-47
2022/09/26 03:08:46;;;;;;;1.52;1.40;;;20.70;60.80;;;;;;5104805;28;20056;-49
2022/09/26 03:11:15;;;;;;;1.50;1.40;;;20.70;61.10;;;;;;5093731;28;20062;-43
2022/09/26 03:13:41;;;;;;;1.58;1.48;;;20.70;61.40;;;;;;5092720;28;20047;-46
2022/09/26 03:16:07;;;;;;;1.63;1.52;;;20.70;61.80;;;;;;5082339;28;20041;-46
2022/09/26 03:19:05;;;;;;;1.38;1.27;;;20.70;62.00;;;;;;5060451;28;20037;-48
2022/09/26 03:21:31;;;;;;;1.58;1.48;;;20.70;62.20;;;;;;5066383;28;20113;-48
2022/09/26 03:23:57;;;;;;;1.55;1.45;;;20.70;62.50;;;;;;5086908;28;20040;-50
2022/09/26 03:26:24;;;;;;;1.50;1.40;;;20.70;62.70;;;;;;5077470;28;20024;-49
2022/09/26 03:28:51;;;;;;;1.15;1.08;;;20.70;62.80;;;;;;5061612;28;20143;-47
2022/09/26 03:31:21;;;;;;;1.27;1.17;;;20.70;63.00;;;;;;5085036;28;20025;-48
2022/09/26 03:33:47;;;;;;;1.70;1.55;;;20.70;63.10;;;;;;5066469;28;20052;-47
2022/09/26 03:36:14;;;;;;;1.63;1.35;;;20.70;63.30;;;;;;5065359;28;20067;-51
2022/09/26 03:38:40;;;;;;;1.60;1.50;;;20.70;63.40;;;;;;5057544;28;20037;-50
2022/09/26 03:41:08;;;;;;;1.98;1.35;;;20.70;63.50;;;;;;5049420;28;20171;-50
2022/09/26 03:43:35;;;;;;;1.30;1.13;;;20.80;63.70;;;;;;5064989;28;20033;-52
2022/09/26 03:46:05;;;;;;;1.30;1.20;;;20.70;64.00;;;;;;5064196;28;20557;-49
2022/09/26 03:48:32;;;;;;;1.33;1.23;;;20.70;64.20;;;;;;5051622;28;20033;-55
2022/09/26 03:51:06;;;;;;;1.73;1.40;;;20.80;64.40;;;;;;5028517;28;20032;-53
2022/09/26 03:53:33;;;;;;;1.42;1.33;;;20.80;64.50;;;;;;5048440;28;20052;-55
2022/09/26 03:56:05;;;;;;;1.20;1.10;;;20.80;64.60;;;;;;5051052;28;20030;-56
2022/09/26 03:58:31;;;;;;;1.40;1.27;;;20.80;64.60;;;;;;5048598;28;20096;-55
2022/09/26 04:01:10;;;;;;;1.10;1.00;;;20.80;64.60;;;;;;5059799;28;20036;-53
2022/09/26 04:03:37;;;;;;;1.48;1.38;;;20.80;64.70;;;;;;5069833;28;20062;-51
2022/09/26 04:06:04;;;;;;;1.50;1.40;;;20.80;64.80;;;;;;5059324;28;20093;-49
2022/09/26 04:08:30;;;;;;;;;;;20.80;64.90;;;;;;5062222;28;20032;-51
2022/09/26 04:11:04;;;;;;;1.23;1.13;;;20.80;64.90;;;;;;5058216;28;19916;-49
2022/09/26 04:13:30;;;;;;;1.10;1.00;;;20.80;65.00;;;;;;5031798;28;20029;-54
2022/09/26 04:16:02;;;;;;;1.33;1.23;;;20.80;65.00;;;;;;5071889;28;20033;-53
2022/09/26 04:18:28;;;;;;;1.23;1.13;;;20.80;65.00;;;;;;5060145;28;20048;-56
2022/09/26 04:20:59;;;;;;;1.50;1.40;;;20.80;65.00;;;;;;5056310;28;20028;-54
2022/09/26 04:23:29;;;;;;;1.40;1.30;;;20.80;65.10;;;;;;5065232;28;20037;-53
2022/09/26 04:26:17;;;;;;;1.42;1.10;;;20.80;65.20;;;;;;5023454;28;20041;-57
2022/09/26 04:28:43;;;;;;;1.20;1.00;;;20.80;65.20;;;;;;5024416;28;20069;-55
2022/09/26 04:31:10;;;;;;;1.48;1.38;;;20.80;65.30;;;;;;5013993;28;20049;-50
2022/09/26 04:33:40;;;;;;;1.30;1.20;;;20.80;65.50;;;;;;5036180;28;20045;-53
2022/09/26 04:36:11;;;;;;;1.20;1.00;;;20.80;65.70;;;;;;5059659;28;20059;-47
2022/09/26 04:38:38;;;;;;;1.38;1.27;;;20.90;66.10;;;;;;5059148;28;20049;-46
2022/09/26 04:41:08;;;;;;;1.83;1.30;;;20.90;66.20;;;;;;5055301;28;20021;-47
2022/09/26 04:43:35;;;;;;;1.40;1.27;;;20.80;66.20;;;;;;5065950;28;20036;-51
2022/09/26 04:46:04;;;;;;;1.60;1.50;;;20.80;66.30;;;;;;5062126;28;20021;-51
2022/09/26 04:48:31;;;;;;;1.40;1.30;;;20.80;66.30;;;;;;5060034;28;20292;-51
2022/09/26 04:50:57;;;;;;;1.30;1.20;;;20.80;66.30;;;;;;5059459;28;20101;-46
2022/09/26 04:53:24;;;;;;;1.40;1.30;;;20.80;66.30;;;;;;5061999;28;20053;-50
2022/09/26 04:55:53;;;;;;;1.73;1.40;;;20.80;66.40;;;;;;5061580;28;20446;-49
2022/09/26 04:58:19;;;;;;;1.38;1.27;;;20.80;66.40;;;;;;5060889;28;20063;-51
2022/09/26 05:00:49;;;;;;;1.08;1.08;;;20.80;66.40;;;;;;5060250;28;20029;-51
2022/09/26 05:03:15;;;;;;;1.25;1.15;;;20.80;66.40;;;;;;5060264;28;20099;-48
2022/09/26 05:05:51;;;;;;;2.15;1.20;;;20.80;66.50;;;;;;5075593;28;20020;-47
2022/09/26 05:08:18;;;;;;;1.25;1.15;;;20.80;66.60;;;;;;5077986;28;20040;-52
2022/09/26 05:10:51;;;;;;;1.20;1.10;;;20.80;66.60;;;;;;5079444;28;20025;-52
2022/09/26 05:13:17;;;;;;;1.42;1.33;;;20.80;66.60;;;;;;5082040;28;20028;-48
2022/09/26 05:15:43;;;;;;;1.23;1.13;;;20.80;66.70;;;;;;5077926;28;20043;-55
2022/09/26 05:18:10;;;;;;;1.55;1.40;;;20.80;66.70;;;;;;5075434;28;20147;-57
2022/09/26 05:20:39;;;;;;;1.20;1.10;;;20.80;66.80;;;;;;5074111;28;20036;-48
2022/09/26 05:23:06;;;;;;;1.10;1.02;;;20.80;66.90;;;;;;5071933;28;20110;-41
2022/09/26 05:28:25;;;;;;;1.67;1.35;;;20.80;67.00;;;;;;5069495;28;20051;-55
2022/09/26 05:30:51;;;;;;;1.42;1.33;;;20.80;67.00;;;;;;5055589;28;20053;-50
2022/09/26 05:33:20;;;;;;;1.40;1.30;;;20.80;67.00;;;;;;5063187;28;20098;-51
2022/09/26 05:35:52;;;;;;;1.50;1.40;;;20.80;67.00;;;;;;5051877;28;20039;-53
2022/09/26 05:38:18;;;;;;;1.38;1.27;;;20.80;67.00;;;;;;5049356;28;20047;-55
2022/09/26 05:40:56;;;;;;;1.52;1.42;;;20.80;67.10;;;;;;5050349;28;20040;-55
2022/09/26 05:43:24;;;;;;;1.30;1.20;;;20.80;67.30;;;;;;5058460;28;20096;-54
2022/09/26 05:45:50;;;;;;;1.35;1.23;;;20.80;68.10;;;;;;5052019;28;20045;-55
2022/09/26 05:48:16;;;;;;;1.70;1.35;;;20.80;67.50;;;;;;5052021;28;20033;-55
2022/09/26 05:50:42;;;;;;;1.55;1.40;;;20.80;67.60;;;;;;5048786;28;20125;-53
2022/09/26 05:53:09;;;;;;;1.60;1.50;;;20.80;67.50;;;;;;5052808;28;20561;-48
2022/09/26 05:55:38;;;;;;;1.63;1.42;;;20.90;67.50;;;;;;5044213;28;20499;-48
2022/09/26 05:58:05;;;;;;;1.58;1.35;;;20.90;67.40;;;;;;5036056;28;20037;-51
2022/09/26 06:00:31;;;;;;;1.60;1.50;;;20.90;67.20;;;;;;5051850;28;20029;-50
2022/09/26 06:02:57;;;;;;;1.55;1.45;;;20.90;67.20;;;;;;5057323;28;20033;-50
2022/09/26 06:05:24;;;;;;;1.67;1.58;;;20.90;67.10;;;;;;5048595;28;20025;-49
2022/09/26 06:07:51;;;;;;;1.43;1.33;;;20.90;67.10;;;;;;5045475;28;20064;-51
2022/09/26 06:10:18;;;;;;;1.60;1.45;;;20.90;67.10;;;;;;5050191;28;20266;-51
2022/09/26 06:12:44;;;;;;;;;;;20.90;67.00;;;;;;5030183;28;20600;-50
2022/09/26 06:15:11;;;;;;;1.52;1.42;;;20.90;67.10;;;;;;5050239;28;19920;-48
2022/09/26 06:17:37;;;;;;;1.70;1.60;;;20.90;67.10;;;;;;5050269;28;20033;-47
2022/09/26 06:20:04;;;;;;;1.55;1.45;;;20.90;67.20;;;;;;5055704;28;20033;-48
2022/09/26 06:22:32;;;;;;;1.60;1.50;;;20.90;67.20;;;;;;5053395;28;20033;-50
2022/09/26 06:24:59;;;;;;;1.35;1.25;;;20.90;67.20;;;;;;5052647;28;20036;-54
2022/09/26 06:27:25;;;;;;;1.73;1.63;;;20.90;67.20;;;;;;5045398;28;20132;-54
2022/09/26 06:29:51;;;;;;;1.60;1.50;;;20.90;67.20;;;;;;5052655;28;20068;-52
2022/09/26 06:32:17;;;;;;;1.65;1.52;;;20.90;67.50;;;;;;5049883;28;20698;-50
2022/09/26 06:34:43;;;;;;;1.65;1.45;;;20.90;67.60;;;;;;5060342;28;20096;-51
2022/09/26 06:37:10;;;;;;;1.70;1.60;;;20.80;67.70;;;;;;5061945;28;20044;-49
2022/09/26 06:39:36;;;;;;;1.52;1.40;;;20.80;67.80;;;;;;5059022;28;20064;-52
2022/09/26 06:42:04;;;;;;;1.70;1.60;;;20.80;67.80;;;;;;5043519;28;20079;-53
2022/09/26 06:44:30;;;;;;;1.52;1.42;;;20.80;67.80;;;;;;5063505;28;20025;-50
2022/09/26 06:46:59;;;;;;;1.77;1.67;;;20.80;67.90;;;;;;5058414;28;20043;-51
2022/09/26 06:49:26;;;;;;;1.70;1.60;;;20.80;67.90;;;;;;5065938;28;20056;-48
2022/09/26 06:51:52;;;;;;;1.67;1.58;;;20.80;68.40;;;;;;5050689;28;20836;-52
2022/09/26 06:54:18;;;;;;;1.70;1.60;;;20.80;68.80;;;;;;5058870;28;20048;-49
2022/09/26 06:56:44;;;;;;;1.70;1.55;;;20.80;68.90;;;;;;5054433;28;20025;-51
2022/09/26 06:59:11;;;;;;;3.10;1.80;;;20.80;68.90;;;;;;5065037;28;20039;-51
2022/09/26 07:01:37;;;;;;;3.22;1.55;;;20.80;68.90;;;;;;5057111;28;20029;-50
2022/09/26 07:04:04;;;;;;;2.67;1.48;;;20.80;68.90;;;;;;5058113;28;20070;-52
2022/09/26 07:06:30;;;;;;;2.08;1.63;;;20.80;68.90;;;;;;5061352;28;20021;-55
2022/09/26 07:08:56;;;;;;;1.77;1.67;;;20.80;68.90;;;;;;5057089;28;20111;-53
2022/09/26 07:11:23;;;;;;;1.75;1.65;;;20.80;68.80;;;;;;5062490;28;20045;-52
2022/09/26 07:13:49;;;;;;;;;;;20.80;68.90;;;;;;5062402;28;20033;-54
2022/09/26 07:16:15;;;;;;;1.60;1.50;;;20.70;68.80;;;;;;5050643;28;19952;-47
2022/09/26 07:18:42;;;;;;;1.80;1.70;;;20.70;68.90;;;;;;5058140;28;20041;-54
2022/09/26 07:21:08;;;;;;;1.45;1.23;;;20.70;68.80;;;;;;5049120;28;20036;-55
2022/09/26 07:23:34;;;;;;;1.98;1.77;;;20.70;68.80;;;;;;5064368;28;20024;-53
2022/09/26 07:26:01;;;;;;;1.67;1.58;;;20.70;68.80;;;;;;5061344;28;20048;-54
2022/09/26 07:28:28;;;;;;;1.60;1.50;;;20.70;68.80;;;;;;5060234;28;20036;-56
2022/09/26 07:30:58;;;;;;;1.80;1.65;;;20.70;68.80;;;;;;5055973;28;20041;-56
2022/09/26 07:33:24;;;;;;;1.70;1.60;;;20.70;68.80;;;;;;5067370;28;20062;-55
2022/09/26 07:35:51;;;;;;;1.83;1.70;;;20.70;68.80;;;;;;5073985;28;20036;-54
2022/09/26 07:38:17;;;;;;;1.88;1.75;;;20.70;68.80;;;;;;5074558;28;20041;-51
2022/09/26 07:40:43;;;;;;;1.67;1.58;;;20.70;68.80;;;;;;5072356;28;20057;-55
2022/09/26 07:43:10;;;;;;;2.00;1.85;;;20.70;68.80;;;;;;5062646;28;20089;-55
2022/09/26 07:51:05;;;;;;;2.13;1.92;;;20.70;68.70;;;;;;5062901;28;20051;-52
2022/09/26 07:53:32;;;;;;;1.83;1.67;;;20.70;68.90;;;;;;5061406;28;20052;-51
2022/09/26 07:56:10;;;;;;;1.70;1.60;;;20.70;68.90;;;;;;5053551;28;20064;-53
2022/09/26 07:58:40;;;;;;;1.80;1.65;;;20.70;68.90;;;;;;5059940;28;20145;-51
2022/09/26 08:01:10;;;;;;;1.90;1.80;;;20.70;69.00;;;;;;5064843;28;20025;-53
2022/09/26 08:03:46;;;;;;;1.67;1.58;;;20.80;68.90;;;;;;5051308;28;20040;-53
2022/09/26 08:06:16;;;;;;;1.95;1.75;;;20.80;68.80;;;;;;5058433;28;20029;-55
2022/09/26 08:08:42;;;;;;;1.88;1.73;;;20.70;68.70;;;;;;5062201;28;20535;-55
2022/09/26 08:11:15;;;;;;;5.15;1.52;;;20.80;68.70;;;;;;5048188;28;20029;-52
2022/09/26 08:13:42;;;;;;;2.03;1.80;;;20.70;68.60;;;;;;5064761;28;20031;-50
2022/09/26 08:16:08;;;;;;;1.85;1.75;;;20.70;68.50;;;;;;5055016;28;20029;-46
2022/09/26 08:18:34;;;;;;;3.42;1.75;;;20.70;68.60;;;;;;5069325;28;20048;-52
2022/09/26 08:21:04;;;;;;;18.80;3.72;;;20.80;69.00;;;;;;5060770;28;20067;-52
2022/09/26 08:23:31;;;;;;;13.05;3.42;;;20.80;69.20;;;;;;5065735;28;20021;-52
2022/09/26 08:25:58;;;;;;;;;;;20.90;69.40;;;;;;5062049;28;20036;-50
2022/09/26 08:28:26;;;;;;;10.90;3.30;;;20.90;69.30;;;;;;5044233;28;19963;-56
2022/09/26 08:30:52;;;;;;;13.70;3.38;;;20.90;69.10;;;;;;5060473;28;20021;-57
2022/09/26 08:33:20;;;;;;;11.73;3.03;;;20.90;69.10;;;;;;5067179;28;20052;-52
2022/09/26 08:35:47;;;;;;;8.48;2.80;;;20.90;69.00;;;;;;5071593;28;20048;-54
2022/09/26 08:38:14;;;;;;;;;;;20.90;68.80;;;;;;5075493;28;20040;-55
2022/09/26 08:40:46;;;;;;;10.75;3.58;;;20.90;68.60;;;;;;5077667;28;19913;-50
2022/09/26 08:43:24;;;;;;;7.65;3.10;;;21.00;68.50;;;;;;5072911;28;20035;-53
2022/09/26 08:49:00;;;;;;;8.75;3.30;;;21.00;68.20;;;;;;5075081;28;20103;-51
2022/09/26 08:51:31;;;;;;;8.40;2.88;;;21.00;68.00;;;;;;5078816;28;20028;-53
2022/09/26 08:54:14;;;;;;;6.88;3.00;;;21.00;67.90;;;;;;5073035;28;20033;-55
2022/09/26 08:56:46;;;;;;;5.35;2.72;;;21.00;67.80;;;;;;5070517;28;20063;-55
2022/09/26 08:59:30;;;;;;;7.15;3.08;;;21.10;67.60;;;;;;5085890;28;20040;-57
2022/09/26 09:01:59;;;;;;;6.18;2.97;;;21.00;67.40;;;;;;5071821;28;20032;-54
2022/09/26 09:05:03;;;;;;;9.27;3.10;;;21.10;67.40;;;;;;5064289;28;20029;-53
2022/09/26 09:07:29;;;;;;;10.68;3.13;;;21.10;67.30;;;;;;5032675;28;20045;-53
2022/09/26 09:10:07;;;;;;;6.50;2.63;;;21.10;67.20;;;;;;5089612;28;20029;-56
2022/09/26 09:12:56;;;;;;;4.72;2.85;;;21.10;67.00;;;;;;5082447;28;20028;-54
2022/09/26 09:15:37;;;;;;;6.68;2.92;;;21.10;66.90;;;;;;5079099;28;20067;-54
2022/09/26 09:18:06;;;;;;;6.15;2.75;;;21.10;66.80;;;;;;5077286;28;20059;-57
2022/09/26 09:20:56;;;;;;;5.82;3.08;;;21.10;66.80;;;;;;5084809;28;20051;-55
2022/09/26 09:23:27;;;;;;;5.00;2.72;;;21.10;66.70;;;;;;5073277;28;20029;-55
2022/09/26 09:26:13;;;;;;;5.47;2.97;;;21.10;66.60;;;;;;5081025;28;20094;-55
2022/09/26 09:29:30;;;;;;;6.70;3.08;;;21.10;66.50;;;;;;5068242;28;20059;-53
2022/09/26 09:31:56;;;;;;;6.18;3.58;;;21.10;66.50;;;;;;5000963;28;20042;-55
2022/09/26 09:34:28;;;;;;;5.78;3.17;;;21.10;66.40;;;;;;4996518;28;20054;-54
2022/09/26 09:36:56;;;;;;;4.07;2.92;;;21.10;66.30;;;;;;5001382;28;20557;-51
2022/09/26 09:39:40;;;;;;;4.75;3.08;;;21.10;66.20;;;;;;4975461;28;20074;-53
2022/09/26 09:42:39;;;;;;;7.47;3.42;;;21.10;66.20;;;;;;5000679;28;20177;-53
2022/09/26 09:45:08;;;;;;;6.00;3.05;;;21.10;66.10;;;;;;4999867;28;20054;-57
2022/09/26 09:47:37;;;;;;;4.55;3.03;;;21.10;66.10;;;;;;5014280;28;20117;-55
2022/09/26 09:50:43;;;;;;;7.88;3.15;;;21.10;66.10;;;;;;4983154;28;20146;-54
2022/09/26 09:53:12;;;;;;;5.28;2.90;;;21.10;66.00;;;;;;5004634;28;20038;-54
2022/09/26 09:56:01;;;;;;;6.22;2.97;;;21.10;66.00;;;;;;4990745;28;20038;-53
2022/09/26 09:58:37;;;;;;;6.85;2.97;;;21.10;65.90;;;;;;5010547;28;20069;-55
2022/09/26 10:01:26;;;;;;;5.40;3.10;;;21.10;65.90;;;;;;5006045;28;20030;-55
2022/09/26 10:04:26;;;;;;;5.70;3.25;;;21.10;65.80;;;;;;5002870;28;20110;-55
2022/09/26 10:06:53;;;;;;;5.57;3.00;;;21.10;65.70;;;;;;5060510;28;20049;-57
2022/09/26 10:09:26;;;;;;;5.90;3.03;;;21.10;65.70;;;;;;5082450;28;20119;-56
2022/09/26 10:11:52;;;;;;;3.55;2.70;;;21.10;65.70;;;;;;5079597;28;20284;-54
2022/09/26 10:14:28;;;;;;;4.63;3.17;;;21.10;65.60;;;;;;5081874;28;20032;-52
2022/09/26 10:17:09;;;;;;;6.07;3.30;;;21.10;65.60;;;;;;5076639;28;20277;-53
2022/09/26 10:19:37;;;;;;;4.50;3.13;;;21.10;65.60;;;;;;5076451;28;20037;-54
2022/09/26 10:22:08;;;;;;;3.67;2.95;;;21.10;65.50;;;;;;5066318;28;20032;-56
2022/09/26 10:24:39;;;;;;;3.45;2.70;;;21.10;65.50;;;;;;5065174;28;20024;-58
2022/09/26 10:27:24;;;;;;;3.63;3.05;;;21.00;65.50;;;;;;5071339;28;20056;-57
2022/09/26 10:29:57;;;;;;;5.10;2.78;;;21.00;65.50;;;;;;5078126;28;20062;-57
2022/09/26 10:32:24;;;;;;;2.78;2.58;;;21.00;65.40;;;;;;5086511;28;20028;-56
2022/09/26 10:35:06;;;;;;;3.47;2.83;;;21.00;65.40;;;;;;5053194;28;20766;-51
2022/09/26 10:37:35;;;;;;;3.63;2.78;;;21.10;65.40;;;;;;5059808;28;20037;-49
2022/09/26 10:42:46;;;;;;;7.97;2.95;;;21.00;65.70;;;;;;5030490;28;20072;-41
2022/09/26 10:45:19;;;;;;;7.40;3.25;;;21.00;65.90;;;;;;5056645;28;20668;-47
2022/09/26 10:47:46;;;;;;;10.63;4.00;;;21.00;66.10;;;;;;5070607;28;20056;-42
2022/09/26 10:50:23;;;;;;;8.18;5.40;;;21.00;66.30;;;;;;5035539;28;20018;-43
2022/09/26 10:52:55;;;;;;;11.98;5.20;;;21.00;66.70;;;;;;5056103;28;20651;-43
2022/09/26 10:55:25;;;;;;;17.20;5.00;;;21.10;67.00;;;;;;5033998;28;20030;-42
2022/09/26 10:57:53;;;;;;;10.18;4.63;;;21.00;67.10;;;;;;5038137;28;20524;-42
2022/09/26 11:00:22;;;;;;;11.13;4.45;;;21.00;67.20;;;;;;5065148;28;20033;-42
2022/09/26 11:02:52;;;;;;;10.48;4.65;;;21.10;67.30;;;;;;5044563;28;20498;-42
2022/09/26 11:08:08;;;;;;;9.23;4.28;;;21.00;67.20;;;;;;5052252;28;20607;-41
2022/09/26 11:10:37;;;;;;;7.32;4.30;;;21.00;67.30;;;;;;5027633;28;20094;-42
2022/09/26 11:13:16;;;;;;;6.03;3.80;;;21.10;67.30;;;;;;5072056;28;20017;-43
2022/09/26 11:16:08;;;;;;;4.18;3.53;;;21.10;67.30;;;;;;5054199;28;20021;-42
2022/09/26 11:18:44;;;;;;;4.72;3.90;;;21.10;67.20;;;;;;5061937;28;20045;-42
2022/09/26 11:21:36;;;;;;;6.88;3.30;;;21.10;67.10;;;;;;5066267;28;20032;-43
2022/09/26 11:24:11;;;;;;;4.50;3.97;;;21.10;67.10;;;;;;5056066;28;20037;-42
2022/09/26 11:26:58;;;;;;;5.55;4.03;;;21.10;67.10;;;;;;5048810;28;20375;-42
2022/09/26 11:29:54;;;;;;;4.72;3.78;;;21.10;67.00;;;;;;5040842;28;20089;-42
2022/09/26 11:32:39;;;;;;;3.90;3.50;;;21.10;67.00;;;;;;5078217;28;20082;-42
2022/09/26 11:35:12;;;;;;;4.30;3.45;;;21.10;67.00;;;;;;5042512;28;20033;-42
2022/09/26 11:38:03;;;;;;;5.30;3.80;;;21.10;66.90;;;;;;5061656;28;20025;-42
2022/09/26 11:40:50;;;;;;;4.35;3.80;;;21.10;66.90;;;;;;5050750;28;20040;-44
2022/09/26 11:43:39;;;;;;;5.47;3.90;;;21.10;66.90;;;;;;5064248;28;20120;-42
2022/09/26 11:46:22;;;;;;;3.72;3.08;;;21.10;66.80;;;;;;5033618;28;20025;-42
2022/09/26 11:49:12;;;;;;;3.45;3.13;;;21.10;66.80;;;;;;5062746;28;20097;-43
2022/09/26 11:51:57;;;;;;;4.55;3.72;;;21.10;66.70;;;;;;5066229;28;20029;-41
2022/09/26 11:54:24;;;;;;;4.38;3.22;;;21.10;66.70;;;;;;5064887;28;20111;-44
2022/09/26 11:57:07;;;;;;;4.22;3.42;;;21.10;66.60;;;;;;5054364;28;20101;-48
2022/09/26 11:59:51;;;;;;;4.20;3.80;;;21.00;66.50;;;;;;5070324;28;20039;-44
2022/09/26 12:02:42;;;;;;;4.50;3.78;;;21.10;66.60;;;;;;5050788;28;20053;-43
2022/09/26 12:05:27;;;;;;;3.55;3.25;;;21.00;66.50;;;;;;5047356;28;20116;-43
2022/09/26 12:08:18;;;;;;;3.67;3.38;;;21.10;66.50;;;;;;5064207;28;20036;-42
2022/09/26 12:10:51;;;;;;;4.90;3.72;;;21.00;66.50;;;;;;5046795;28;20033;-44
2022/09/26 12:13:28;;;;;;;4.13;3.72;;;21.10;66.50;;;;;;5060828;28;20140;-42
2022/09/26 12:16:13;;;;;;;6.55;4.00;;;21.00;66.40;;;;;;5041803;28;20041;-41
2022/09/26 12:18:52;;;;;;;4.40;3.70;;;21.10;66.40;;;;;;5038185;28;20067;-42
2022/09/26 12:21:24;;;;;;;3.90;3.45;;;21.00;66.30;;;;;;5047501;28;20037;-42
2022/09/26 12:23:56;;;;;;;3.80;3.45;;;21.00;66.30;;;;;;5070748;28;20039;-43
2022/09/26 12:26:44;;;;;;;3.75;3.45;;;21.00;66.30;;;;;;5062916;28;20873;-42
2022/09/26 12:29:33;;;;;;;4.13;3.72;;;21.00;66.30;;;;;;5057298;28;20823;-42
2022/09/26 12:32:14;;;;;;;4.05;3.72;;;21.00;66.20;;;;;;5037186;28;20037;-42
2022/09/26 12:34:43;;;;;;;3.40;3.15;;;21.00;66.20;;;;;;5075288;28;20082;-42
2022/09/26 12:37:18;;;;;;;4.47;3.47;;;21.00;66.20;;;;;;5076054;28;20027;-44
2022/09/26 12:40:08;;;;;;;3.72;3.42;;;21.00;66.20;;;;;;5073080;28;20037;-41
2022/09/26 12:42:53;;;;;;;3.83;3.25;;;21.00;66.20;;;;;;5075960;28;20044;-42
2022/09/26 12:45:51;;;;;;;3.60;3.30;;;21.00;66.30;;;;;;5055411;28;20029;-44
2022/09/26 12:48:26;;;;;;;4.10;3.80;;;21.00;66.20;;;;;;5077980;28;20036;-43
2022/09/26 12:51:07;;;;;;;4.00;3.60;;;21.00;66.10;;;;;;5078427;28;20055;-42
2022/09/26 12:53:56;;;;;;;4.30;3.60;;;21.00;66.10;;;;;;5074091;28;20033;-42
2022/09/26 12:56:29;;;;;;;3.85;3.55;;;21.00;66.10;;;;;;5077353;28;20036;-42
2022/09/26 12:59:10;;;;;;;3.90;3.50;;;21.00;66.10;;;;;;5074665;28;20776;-42
2022/09/26 13:02:32;;;;;;;3.90;3.60;;;21.00;66.10;;;;;;5093833;28;20034;-43
2022/09/26 13:05:30;;;;;;;3.53;3.22;;;21.00;66.10;;;;;;5015264;28;20026;-43
2022/09/26 13:08:00;;;;;;;3.50;3.25;;;21.00;66.10;;;;;;4992969;28;20059;-44
2022/09/26 13:10:36;;;;;;;3.92;3.63;;;21.00;66.00;;;;;;4989404;28;20042;-42
2022/09/26 13:13:21;;;;;;;4.30;3.65;;;21.00;66.10;;;;;;4968439;28;20094;-43
2022/09/26 13:15:57;;;;;;;3.70;3.40;;;21.00;66.00;;;;;;4972167;28;20042;-41
2022/09/26 13:18:29;;;;;;;4.95;3.13;;;21.00;66.00;;;;;;4987538;28;20057;-42
2022/09/26 13:21:01;;;;;;;4.03;3.45;;;21.00;66.10;;;;;;4989931;28;20069;-42
2022/09/26 13:23:52;;;;;;;3.35;3.15;;;20.90;66.00;;;;;;4983443;28;20061;-43
2022/09/26 13:26:25;;;;;;;3.78;3.47;;;21.00;66.00;;;;;;4976084;28;20046;-42
2022/09/26 13:29:01;;;;;;;3.67;3.38;;;21.00;66.00;;;;;;4977380;28;20198;-42
2022/09/26 13:31:34;;;;;;;3.30;3.10;;;20.90;66.00;;;;;;4990950;28;20039;-42
2022/09/26 13:34:13;;;;;;;3.60;3.30;;;21.00;66.00;;;;;;4996106;28;20063;-42
2022/09/26 13:36:41;;;;;;;3.60;3.30;;;20.90;66.00;;;;;;4974874;28;20059;-42
2022/09/26 13:39:25;;;;;;;3.90;3.60;;;20.90;65.90;;;;;;5006191;28;20052;-42